sensor_id;sensor_type;location;lat;lon;timestamp;P1;durP1;ratioP1;P2;durP2;ratioP2
3036;SDS011;1528;52.550;13.408;2022-11-13T00:01:18;26.87;;;24.90;;
3036;SDS011;1528;52.550;13.408;2022-11-13T00:04:05;26.40;;;24.70;;
3036;SDS011;1528;52.550;13.408;2022-11-13T00:06:52;27.00;;;25.10;;
3036;SDS011;1528;52.550;13.408;2022-11-13T00:09:38;28.80;;;26.90;;
3036;SDS011;1528;52.550;13.408;2022-11-13T00:12:24;27.30;;;25.30;;
3036;SDS011;1528;52.550;13.408;2022-11-13T00:15:10;27.33;;;25.53;;
3036;SDS011;1528;52.550;13.408;2022-11-13T00:17:58;27.07;;;24.87;;
3036;SDS011;1528;52.550;13.408;2022-11-13T00:20:44;25.73;;;23.60;;
3036;SDS011;1528;52.550;13.408;2022-11-13T00:23:32;25.57;;;23.97;;
3036;SDS011;1528;52.550;13.408;2022-11-13T00:26:19;26.17;;;24.27;;
3036;SDS011;1528;52.550;13.408;2022-11-13T00:29:06;26.03;;;24.03;;
3036;SDS011;1528;52.550;13.408;2022-11-13T00:31:52;23.57;;;22.10;;
3036;SDS011;1528;52.550;13.408;2022-11-13T00:34:37;27.00;;;24.93;;
3036;SDS011;1528;52.550;13.408;2022-11-13T00:37:23;25.93;;;24.03;;
3036;SDS011;1528;52.550;13.408;2022-11-13T00:40:10;24.67;;;22.87;;
3036;SDS011;1528;52.550;13.408;2022-11-13T00:42:56;25.53;;;23.93;;
3036;SDS011;1528;52.550;13.408;2022-11-13T00:45:42;23.60;;;21.90;;
3036;SDS011;1528;52.550;13.408;2022-11-13T00:48:27;25.13;;;23.33;;
3036;SDS011;1528;52.550;13.408;2022-11-13T00:51:12;23.93;;;22.30;;
3036;SDS011;1528;52.550;13.408;2022-11-13T00:53:58;24.50;;;22.67;;
3036;SDS011;1528;52.550;13.408;2022-11-13T00:56:45;23.70;;;21.80;;
3036;SDS011;1528;52.550;13.408;2022-11-13T00:59:30;22.70;;;21.10;;
3036;SDS011;1528;52.550;13.408;2022-11-13T01:02:16;25.07;;;22.97;;
3036;SDS011;1528;52.550;13.408;2022-11-13T01:05:01;25.50;;;23.70;;
3036;SDS011;1528;52.550;13.408;2022-11-13T01:07:47;21.80;;;20.30;;
3036;SDS011;1528;52.550;13.408;2022-11-13T01:10:33;21.50;;;20.03;;
3036;SDS011;1528;52.550;13.408;2022-11-13T01:13:23;20.00;;;18.60;;
3036;SDS011;1528;52.550;13.408;2022-11-13T01:16:09;20.97;;;19.57;;
3036;SDS011;1528;52.550;13.408;2022-11-13T01:18:55;22.47;;;20.70;;
3036;SDS011;1528;52.550;13.408;2022-11-13T01:21:41;22.00;;;20.40;;
3036;SDS011;1528;52.550;13.408;2022-11-13T01:24:26;21.37;;;19.73;;
3036;SDS011;1528;52.550;13.408;2022-11-13T01:27:12;22.00;;;20.27;;
3036;SDS011;1528;52.550;13.408;2022-11-13T01:29:59;21.50;;;20.00;;
3036;SDS011;1528;52.550;13.408;2022-11-13T01:32:45;21.83;;;20.30;;
3036;SDS011;1528;52.550;13.408;2022-11-13T01:35:30;19.00;;;17.70;;
3036;SDS011;1528;52.550;13.408;2022-11-13T01:38:16;21.07;;;19.50;;
3036;SDS011;1528;52.550;13.408;2022-11-13T01:41:01;22.10;;;20.60;;
3036;SDS011;1528;52.550;13.408;2022-11-13T01:43:47;20.57;;;18.87;;
3036;SDS011;1528;52.550;13.408;2022-11-13T01:46:35;20.63;;;19.20;;
3036;SDS011;1528;52.550;13.408;2022-11-13T01:49:25;19.83;;;18.53;;
3036;SDS011;1528;52.550;13.408;2022-11-13T01:52:14;20.33;;;18.93;;
3036;SDS011;1528;52.550;13.408;2022-11-13T01:55:04;21.30;;;19.90;;
3036;SDS011;1528;52.550;13.408;2022-11-13T01:57:53;20.77;;;19.07;;
3036;SDS011;1528;52.550;13.408;2022-11-13T02:00:39;20.20;;;18.80;;
3036;SDS011;1528;52.550;13.408;2022-11-13T02:03:26;22.03;;;20.10;;
3036;SDS011;1528;52.550;13.408;2022-11-13T02:06:11;21.80;;;20.50;;
3036;SDS011;1528;52.550;13.408;2022-11-13T02:08:57;24.70;;;23.10;;
3036;SDS011;1528;52.550;13.408;2022-11-13T02:11:42;21.37;;;20.07;;
3036;SDS011;1528;52.550;13.408;2022-11-13T02:14:28;20.73;;;19.30;;
3036;SDS011;1528;52.550;13.408;2022-11-13T02:17:14;23.10;;;21.37;;
3036;SDS011;1528;52.550;13.408;2022-11-13T02:20:05;20.43;;;19.03;;
3036;SDS011;1528;52.550;13.408;2022-11-13T02:22:54;21.97;;;20.37;;
3036;SDS011;1528;52.550;13.408;2022-11-13T02:25:48;22.13;;;20.43;;
3036;SDS011;1528;52.550;13.408;2022-11-13T02:28:36;21.80;;;20.20;;
3036;SDS011;1528;52.550;13.408;2022-11-13T02:31:21;22.00;;;20.30;;
3036;SDS011;1528;52.550;13.408;2022-11-13T02:34:07;22.03;;;20.53;;
3036;SDS011;1528;52.550;13.408;2022-11-13T02:36:52;23.73;;;22.13;;
3036;SDS011;1528;52.550;13.408;2022-11-13T02:39:38;22.00;;;20.43;;
3036;SDS011;1528;52.550;13.408;2022-11-13T02:42:25;23.13;;;21.33;;
3036;SDS011;1528;52.550;13.408;2022-11-13T02:45:11;22.80;;;21.00;;
3036;SDS011;1528;52.550;13.408;2022-11-13T02:47:58;22.60;;;21.00;;
3036;SDS011;1528;52.550;13.408;2022-11-13T02:50:43;21.37;;;19.87;;
3036;SDS011;1528;52.550;13.408;2022-11-13T02:53:29;23.00;;;21.30;;
3036;SDS011;1528;52.550;13.408;2022-11-13T02:56:14;25.70;;;24.00;;
3036;SDS011;1528;52.550;13.408;2022-11-13T02:59:01;24.33;;;22.40;;
3036;SDS011;1528;52.550;13.408;2022-11-13T03:01:46;25.00;;;23.30;;
3036;SDS011;1528;52.550;13.408;2022-11-13T03:04:32;24.87;;;23.13;;
3036;SDS011;1528;52.550;13.408;2022-11-13T03:07:18;25.00;;;23.20;;
3036;SDS011;1528;52.550;13.408;2022-11-13T03:10:03;24.53;;;22.83;;
3036;SDS011;1528;52.550;13.408;2022-11-13T03:12:50;26.20;;;24.20;;
3036;SDS011;1528;52.550;13.408;2022-11-13T03:15:36;25.57;;;23.23;;
3036;SDS011;1528;52.550;13.408;2022-11-13T03:18:22;28.53;;;26.53;;
3036;SDS011;1528;52.550;13.408;2022-11-13T03:21:09;23.13;;;21.47;;
3036;SDS011;1528;52.550;13.408;2022-11-13T03:23:55;23.10;;;21.50;;
3036;SDS011;1528;52.550;13.408;2022-11-13T03:26:40;25.33;;;23.63;;
3036;SDS011;1528;52.550;13.408;2022-11-13T03:29:26;23.80;;;22.00;;
3036;SDS011;1528;52.550;13.408;2022-11-13T03:32:13;23.37;;;21.50;;
3036;SDS011;1528;52.550;13.408;2022-11-13T03:34:59;24.47;;;22.70;;
3036;SDS011;1528;52.550;13.408;2022-11-13T03:37:44;26.97;;;25.07;;
3036;SDS011;1528;52.550;13.408;2022-11-13T03:40:30;24.23;;;22.47;;
3036;SDS011;1528;52.550;13.408;2022-11-13T03:43:16;24.80;;;22.67;;
3036;SDS011;1528;52.550;13.408;2022-11-13T03:46:01;24.40;;;22.57;;
3036;SDS011;1528;52.550;13.408;2022-11-13T03:48:48;23.70;;;22.20;;
3036;SDS011;1528;52.550;13.408;2022-11-13T03:51:34;22.73;;;21.20;;
3036;SDS011;1528;52.550;13.408;2022-11-13T03:54:20;21.90;;;20.40;;
3036;SDS011;1528;52.550;13.408;2022-11-13T03:57:05;21.10;;;19.70;;
3036;SDS011;1528;52.550;13.408;2022-11-13T03:59:51;22.07;;;20.60;;
3036;SDS011;1528;52.550;13.408;2022-11-13T04:02:36;22.50;;;20.90;;
3036;SDS011;1528;52.550;13.408;2022-11-13T04:05:23;20.93;;;19.63;;
3036;SDS011;1528;52.550;13.408;2022-11-13T04:08:09;19.90;;;18.60;;
3036;SDS011;1528;52.550;13.408;2022-11-13T04:10:54;22.20;;;20.70;;
3036;SDS011;1528;52.550;13.408;2022-11-13T04:13:49;20.83;;;19.37;;
3036;SDS011;1528;52.550;13.408;2022-11-13T04:16:35;19.60;;;18.20;;
3036;SDS011;1528;52.550;13.408;2022-11-13T04:19:20;21.53;;;20.20;;
3036;SDS011;1528;52.550;13.408;2022-11-13T04:22:08;19.90;;;18.60;;
3036;SDS011;1528;52.550;13.408;2022-11-13T04:24:54;20.97;;;19.57;;
3036;SDS011;1528;52.550;13.408;2022-11-13T04:27:39;18.30;;;17.23;;
3036;SDS011;1528;52.550;13.408;2022-11-13T04:30:25;18.57;;;17.23;;
3036;SDS011;1528;52.550;13.408;2022-11-13T04:33:11;18.67;;;17.47;;
3036;SDS011;1528;52.550;13.408;2022-11-13T04:35:56;19.03;;;17.83;;
3036;SDS011;1528;52.550;13.408;2022-11-13T04:38:43;19.87;;;18.67;;
3036;SDS011;1528;52.550;13.408;2022-11-13T04:41:28;19.57;;;18.37;;
3036;SDS011;1528;52.550;13.408;2022-11-13T04:44:31;22.30;;;20.90;;
3036;SDS011;1528;52.550;13.408;2022-11-13T04:47:17;17.10;;;16.10;;
3036;SDS011;1528;52.550;13.408;2022-11-13T04:50:03;18.53;;;17.47;;
3036;SDS011;1528;52.550;13.408;2022-11-13T04:52:50;20.37;;;19.07;;
3036;SDS011;1528;52.550;13.408;2022-11-13T04:55:36;20.10;;;18.90;;
3036;SDS011;1528;52.550;13.408;2022-11-13T04:58:22;21.03;;;19.87;;
3036;SDS011;1528;52.550;13.408;2022-11-13T05:01:07;20.50;;;19.40;;
3036;SDS011;1528;52.550;13.408;2022-11-13T05:03:52;18.77;;;17.73;;
3036;SDS011;1528;52.550;13.408;2022-11-13T05:06:38;22.37;;;20.90;;
3036;SDS011;1528;52.550;13.408;2022-11-13T05:09:24;21.30;;;19.80;;
3036;SDS011;1528;52.550;13.408;2022-11-13T05:12:11;21.90;;;20.50;;
3036;SDS011;1528;52.550;13.408;2022-11-13T05:14:57;20.43;;;19.03;;
3036;SDS011;1528;52.550;13.408;2022-11-13T05:17:42;20.57;;;19.33;;
3036;SDS011;1528;52.550;13.408;2022-11-13T05:20:28;22.23;;;21.03;;
3036;SDS011;1528;52.550;13.408;2022-11-13T05:23:13;22.60;;;21.20;;
3036;SDS011;1528;52.550;13.408;2022-11-13T05:26:02;21.43;;;20.00;;
3036;SDS011;1528;52.550;13.408;2022-11-13T05:28:51;23.13;;;21.50;;
3036;SDS011;1528;52.550;13.408;2022-11-13T05:31:36;21.83;;;20.57;;
3036;SDS011;1528;52.550;13.408;2022-11-13T05:34:22;22.70;;;21.40;;
3036;SDS011;1528;52.550;13.408;2022-11-13T05:37:08;21.93;;;20.57;;
3036;SDS011;1528;52.550;13.408;2022-11-13T05:39:53;24.10;;;22.60;;
3036;SDS011;1528;52.550;13.408;2022-11-13T05:42:39;25.70;;;24.00;;
3036;SDS011;1528;52.550;13.408;2022-11-13T05:45:26;25.07;;;23.37;;
3036;SDS011;1528;52.550;13.408;2022-11-13T05:48:11;25.20;;;23.50;;
3036;SDS011;1528;52.550;13.408;2022-11-13T05:51:00;26.17;;;24.50;;
3036;SDS011;1528;52.550;13.408;2022-11-13T05:53:46;25.13;;;23.43;;
3036;SDS011;1528;52.550;13.408;2022-11-13T05:56:32;26.00;;;24.20;;
3036;SDS011;1528;52.550;13.408;2022-11-13T05:59:19;25.47;;;23.50;;
3036;SDS011;1528;52.550;13.408;2022-11-13T06:02:06;26.23;;;24.50;;
3036;SDS011;1528;52.550;13.408;2022-11-13T06:04:51;27.50;;;25.70;;
3036;SDS011;1528;52.550;13.408;2022-11-13T06:07:37;27.53;;;25.53;;
3036;SDS011;1528;52.550;13.408;2022-11-13T06:10:23;27.47;;;25.47;;
3036;SDS011;1528;52.550;13.408;2022-11-13T06:13:08;27.50;;;25.63;;
3036;SDS011;1528;52.550;13.408;2022-11-13T06:15:54;26.30;;;24.40;;
3036;SDS011;1528;52.550;13.408;2022-11-13T06:18:46;28.07;;;25.87;;
3036;SDS011;1528;52.550;13.408;2022-11-13T06:21:34;26.47;;;24.67;;
3036;SDS011;1528;52.550;13.408;2022-11-13T06:24:21;24.17;;;22.47;;
3036;SDS011;1528;52.550;13.408;2022-11-13T06:27:07;26.20;;;24.20;;
3036;SDS011;1528;52.550;13.408;2022-11-13T06:29:52;23.10;;;21.60;;
3036;SDS011;1528;52.550;13.408;2022-11-13T06:32:38;22.40;;;20.90;;
3036;SDS011;1528;52.550;13.408;2022-11-13T06:35:25;23.17;;;21.63;;
3036;SDS011;1528;52.550;13.408;2022-11-13T06:38:11;23.87;;;22.07;;
3036;SDS011;1528;52.550;13.408;2022-11-13T06:40:56;21.97;;;20.40;;
3036;SDS011;1528;52.550;13.408;2022-11-13T06:43:42;23.73;;;22.03;;
3036;SDS011;1528;52.550;13.408;2022-11-13T06:46:28;23.00;;;21.30;;
3036;SDS011;1528;52.550;13.408;2022-11-13T06:49:14;22.93;;;21.23;;
3036;SDS011;1528;52.550;13.408;2022-11-13T06:52:01;22.60;;;21.03;;
3036;SDS011;1528;52.550;13.408;2022-11-13T06:54:46;23.10;;;21.60;;
3036;SDS011;1528;52.550;13.408;2022-11-13T06:57:32;23.70;;;22.20;;
3036;SDS011;1528;52.550;13.408;2022-11-13T07:00:18;25.00;;;23.13;;
3036;SDS011;1528;52.550;13.408;2022-11-13T07:03:04;28.50;;;26.60;;
3036;SDS011;1528;52.550;13.408;2022-11-13T07:05:49;27.03;;;25.03;;
3036;SDS011;1528;52.550;13.408;2022-11-13T07:08:36;28.43;;;26.50;;
3036;SDS011;1528;52.550;13.408;2022-11-13T07:11:22;27.30;;;25.50;;
3036;SDS011;1528;52.550;13.408;2022-11-13T07:14:08;26.80;;;24.90;;
3036;SDS011;1528;52.550;13.408;2022-11-13T07:16:55;28.03;;;26.13;;
3036;SDS011;1528;52.550;13.408;2022-11-13T07:19:40;29.50;;;27.23;;
3036;SDS011;1528;52.550;13.408;2022-11-13T07:22:26;25.90;;;24.10;;
3036;SDS011;1528;52.550;13.408;2022-11-13T07:25:14;29.17;;;27.20;;
3036;SDS011;1528;52.550;13.408;2022-11-13T07:27:59;30.53;;;28.53;;
3036;SDS011;1528;52.550;13.408;2022-11-13T07:30:45;29.97;;;27.77;;
3036;SDS011;1528;52.550;13.408;2022-11-13T07:33:30;30.77;;;28.33;;
3036;SDS011;1528;52.550;13.408;2022-11-13T07:36:16;28.47;;;26.43;;
3036;SDS011;1528;52.550;13.408;2022-11-13T07:39:02;29.50;;;27.33;;
3036;SDS011;1528;52.550;13.408;2022-11-13T07:41:48;30.17;;;28.17;;
3036;SDS011;1528;52.550;13.408;2022-11-13T07:44:34;28.57;;;26.43;;
3036;SDS011;1528;52.550;13.408;2022-11-13T07:47:19;27.30;;;25.40;;
3036;SDS011;1528;52.550;13.408;2022-11-13T07:50:05;27.70;;;25.60;;
3036;SDS011;1528;52.550;13.408;2022-11-13T07:52:53;27.60;;;25.50;;
3036;SDS011;1528;52.550;13.408;2022-11-13T07:55:40;28.97;;;26.87;;
3036;SDS011;1528;52.550;13.408;2022-11-13T07:58:27;27.70;;;25.50;;
3036;SDS011;1528;52.550;13.408;2022-11-13T08:01:12;28.13;;;26.13;;
3036;SDS011;1528;52.550;13.408;2022-11-13T08:03:58;25.60;;;23.90;;
3036;SDS011;1528;52.550;13.408;2022-11-13T08:06:43;27.87;;;25.77;;
3036;SDS011;1528;52.550;13.408;2022-11-13T08:09:29;29.57;;;27.50;;
3036;SDS011;1528;52.550;13.408;2022-11-13T08:12:14;29.40;;;26.90;;
3036;SDS011;1528;52.550;13.408;2022-11-13T08:15:01;27.37;;;25.03;;
3036;SDS011;1528;52.550;13.408;2022-11-13T08:17:51;28.27;;;26.17;;
3036;SDS011;1528;52.550;13.408;2022-11-13T08:20:38;28.80;;;26.67;;
3036;SDS011;1528;52.550;13.408;2022-11-13T08:23:23;27.40;;;25.23;;
3036;SDS011;1528;52.550;13.408;2022-11-13T08:26:09;27.27;;;25.07;;
3036;SDS011;1528;52.550;13.408;2022-11-13T08:28:54;28.13;;;26.10;;
3036;SDS011;1528;52.550;13.408;2022-11-13T08:31:41;29.07;;;26.93;;
3036;SDS011;1528;52.550;13.408;2022-11-13T08:34:27;30.33;;;28.13;;
3036;SDS011;1528;52.550;13.408;2022-11-13T08:37:13;29.00;;;26.80;;
3036;SDS011;1528;52.550;13.408;2022-11-13T08:39:58;28.50;;;26.50;;
3036;SDS011;1528;52.550;13.408;2022-11-13T08:42:43;27.93;;;25.73;;
3036;SDS011;1528;52.550;13.408;2022-11-13T08:45:29;29.33;;;27.10;;
3036;SDS011;1528;52.550;13.408;2022-11-13T08:48:16;28.37;;;26.17;;
3036;SDS011;1528;52.550;13.408;2022-11-13T08:51:02;30.80;;;28.20;;
3036;SDS011;1528;52.550;13.408;2022-11-13T08:53:48;27.13;;;25.23;;
3036;SDS011;1528;52.550;13.408;2022-11-13T08:56:33;27.77;;;25.67;;
3036;SDS011;1528;52.550;13.408;2022-11-13T08:59:19;30.87;;;28.30;;
3036;SDS011;1528;52.550;13.408;2022-11-13T09:02:06;28.10;;;25.57;;
3036;SDS011;1528;52.550;13.408;2022-11-13T09:04:56;29.77;;;27.43;;
3036;SDS011;1528;52.550;13.408;2022-11-13T09:07:43;28.47;;;26.30;;
3036;SDS011;1528;52.550;13.408;2022-11-13T09:10:28;29.43;;;27.33;;
3036;SDS011;1528;52.550;13.408;2022-11-13T09:13:14;30.37;;;28.10;;
3036;SDS011;1528;52.550;13.408;2022-11-13T09:15:59;29.27;;;26.80;;
3036;SDS011;1528;52.550;13.408;2022-11-13T09:18:47;29.73;;;27.50;;
3036;SDS011;1528;52.550;13.408;2022-11-13T09:21:34;28.70;;;26.70;;
3036;SDS011;1528;52.550;13.408;2022-11-13T09:24:20;32.07;;;29.47;;
3036;SDS011;1528;52.550;13.408;2022-11-13T09:27:05;28.50;;;26.33;;
3036;SDS011;1528;52.550;13.408;2022-11-13T09:29:51;28.40;;;26.30;;
3036;SDS011;1528;52.550;13.408;2022-11-13T09:32:36;28.80;;;26.60;;
3036;SDS011;1528;52.550;13.408;2022-11-13T09:35:22;28.47;;;26.33;;
3036;SDS011;1528;52.550;13.408;2022-11-13T09:38:18;30.00;;;27.70;;
3036;SDS011;1528;52.550;13.408;2022-11-13T09:41:04;30.37;;;27.83;;
3036;SDS011;1528;52.550;13.408;2022-11-13T09:43:54;30.60;;;28.30;;
3036;SDS011;1528;52.550;13.408;2022-11-13T09:46:42;26.73;;;24.63;;
3036;SDS011;1528;52.550;13.408;2022-11-13T09:49:31;25.47;;;23.57;;
3036;SDS011;1528;52.550;13.408;2022-11-13T09:52:20;27.33;;;25.43;;
3036;SDS011;1528;52.550;13.408;2022-11-13T09:55:14;26.73;;;25.03;;
3036;SDS011;1528;52.550;13.408;2022-11-13T09:58:04;26.93;;;25.03;;
3036;SDS011;1528;52.550;13.408;2022-11-13T10:00:57;26.83;;;25.20;;
3036;SDS011;1528;52.550;13.408;2022-11-13T10:03:46;24.00;;;22.13;;
3036;SDS011;1528;52.550;13.408;2022-11-13T10:06:40;23.20;;;21.50;;
3036;SDS011;1528;52.550;13.408;2022-11-13T10:09:36;24.10;;;22.40;;
3036;SDS011;1528;52.550;13.408;2022-11-13T10:12:31;25.97;;;24.30;;
3036;SDS011;1528;52.550;13.408;2022-11-13T10:15:17;25.70;;;24.07;;
3036;SDS011;1528;52.550;13.408;2022-11-13T10:18:05;24.30;;;22.80;;
3036;SDS011;1528;52.550;13.408;2022-11-13T10:20:55;24.63;;;22.80;;
3036;SDS011;1528;52.550;13.408;2022-11-13T10:23:53;23.70;;;22.07;;
3036;SDS011;1528;52.550;13.408;2022-11-13T10:26:40;25.30;;;23.70;;
3036;SDS011;1528;52.550;13.408;2022-11-13T10:29:27;26.17;;;24.37;;
3036;SDS011;1528;52.550;13.408;2022-11-13T10:32:17;25.27;;;23.53;;
3036;SDS011;1528;52.550;13.408;2022-11-13T10:35:14;24.97;;;23.10;;
3036;SDS011;1528;52.550;13.408;2022-11-13T10:38:17;25.30;;;23.40;;
3036;SDS011;1528;52.550;13.408;2022-11-13T10:41:08;26.13;;;24.23;;
3036;SDS011;1528;52.550;13.408;2022-11-13T10:43:56;24.23;;;22.73;;
3036;SDS011;1528;52.550;13.408;2022-11-13T10:46:44;25.10;;;23.30;;
3036;SDS011;1528;52.550;13.408;2022-11-13T10:49:29;27.00;;;25.07;;
3036;SDS011;1528;52.550;13.408;2022-11-13T10:52:16;25.87;;;24.17;;
3036;SDS011;1528;52.550;13.408;2022-11-13T10:55:08;26.70;;;24.70;;
3036;SDS011;1528;52.550;13.408;2022-11-13T10:58:00;26.70;;;25.00;;
3036;SDS011;1528;52.550;13.408;2022-11-13T11:00:47;27.03;;;25.33;;
3036;SDS011;1528;52.550;13.408;2022-11-13T11:03:34;26.17;;;24.50;;
3036;SDS011;1528;52.550;13.408;2022-11-13T11:06:29;24.03;;;22.53;;
3036;SDS011;1528;52.550;13.408;2022-11-13T11:09:18;24.40;;;22.90;;
3036;SDS011;1528;52.550;13.408;2022-11-13T11:12:08;26.13;;;24.53;;
3036;SDS011;1528;52.550;13.408;2022-11-13T11:15:17;23.97;;;22.37;;
3036;SDS011;1528;52.550;13.408;2022-11-13T11:18:12;24.90;;;23.50;;
3036;SDS011;1528;52.550;13.408;2022-11-13T11:21:08;23.00;;;21.13;;
3036;SDS011;1528;52.550;13.408;2022-11-13T11:23:58;24.50;;;23.20;;
3036;SDS011;1528;52.550;13.408;2022-11-13T11:26:50;24.60;;;23.03;;
3036;SDS011;1528;52.550;13.408;2022-11-13T11:29:41;21.50;;;20.10;;
3036;SDS011;1528;52.550;13.408;2022-11-13T11:32:33;24.30;;;22.70;;
3036;SDS011;1528;52.550;13.408;2022-11-13T11:35:23;23.37;;;21.77;;
3036;SDS011;1528;52.550;13.408;2022-11-13T11:38:20;27.53;;;25.73;;
3036;SDS011;1528;52.550;13.408;2022-11-13T11:41:09;27.57;;;25.87;;
3036;SDS011;1528;52.550;13.408;2022-11-13T11:43:58;22.97;;;21.67;;
3036;SDS011;1528;52.550;13.408;2022-11-13T11:46:48;20.20;;;18.67;;
3036;SDS011;1528;52.550;13.408;2022-11-13T11:49:34;22.00;;;20.70;;
3036;SDS011;1528;52.550;13.408;2022-11-13T11:55:33;19.07;;;17.87;;
3036;SDS011;1528;52.550;13.408;2022-11-13T11:58:45;20.10;;;18.80;;
3036;SDS011;1528;52.550;13.408;2022-11-13T12:01:57;20.73;;;19.43;;
3036;SDS011;1528;52.550;13.408;2022-11-13T12:05:15;20.37;;;18.87;;
3036;SDS011;1528;52.550;13.408;2022-11-13T12:08:08;19.27;;;17.97;;
3036;SDS011;1528;52.550;13.408;2022-11-13T12:11:06;19.67;;;18.47;;
3036;SDS011;1528;52.550;13.408;2022-11-13T12:14:00;20.40;;;19.10;;
3036;SDS011;1528;52.550;13.408;2022-11-13T12:16:58;22.50;;;20.80;;
3036;SDS011;1528;52.550;13.408;2022-11-13T12:19:57;22.67;;;21.27;;
3036;SDS011;1528;52.550;13.408;2022-11-13T12:22:47;21.00;;;19.50;;
3036;SDS011;1528;52.550;13.408;2022-11-13T12:25:44;21.10;;;19.80;;
3036;SDS011;1528;52.550;13.408;2022-11-13T12:28:36;22.20;;;20.70;;
3036;SDS011;1528;52.550;13.408;2022-11-13T12:31:32;22.13;;;20.63;;
3036;SDS011;1528;52.550;13.408;2022-11-13T12:34:29;23.00;;;21.60;;
3036;SDS011;1528;52.550;13.408;2022-11-13T12:37:21;20.43;;;19.13;;
3036;SDS011;1528;52.550;13.408;2022-11-13T12:40:13;21.20;;;19.70;;
3036;SDS011;1528;52.550;13.408;2022-11-13T12:43:12;25.13;;;23.53;;
3036;SDS011;1528;52.550;13.408;2022-11-13T12:46:14;22.43;;;21.00;;
3036;SDS011;1528;52.550;13.408;2022-11-13T12:49:00;22.70;;;21.07;;
3036;SDS011;1528;52.550;13.408;2022-11-13T12:51:52;23.50;;;21.80;;
3036;SDS011;1528;52.550;13.408;2022-11-13T12:54:39;25.07;;;23.33;;
3036;SDS011;1528;52.550;13.408;2022-11-13T12:57:24;23.00;;;21.43;;
3036;SDS011;1528;52.550;13.408;2022-11-13T13:00:18;23.87;;;22.27;;
3036;SDS011;1528;52.550;13.408;2022-11-13T13:03:17;24.17;;;22.40;;
3036;SDS011;1528;52.550;13.408;2022-11-13T13:06:15;23.13;;;21.43;;
3036;SDS011;1528;52.550;13.408;2022-11-13T13:09:17;24.37;;;22.57;;
3036;SDS011;1528;52.550;13.408;2022-11-13T13:12:13;23.97;;;22.37;;
3036;SDS011;1528;52.550;13.408;2022-11-13T13:15:07;27.30;;;25.13;;
3036;SDS011;1528;52.550;13.408;2022-11-13T13:18:10;23.67;;;22.07;;
3036;SDS011;1528;52.550;13.408;2022-11-13T13:21:10;25.47;;;23.67;;
3036;SDS011;1528;52.550;13.408;2022-11-13T13:23:56;24.13;;;22.33;;
3036;SDS011;1528;52.550;13.408;2022-11-13T13:26:51;23.23;;;21.80;;
3036;SDS011;1528;52.550;13.408;2022-11-13T13:29:38;22.40;;;20.80;;
3036;SDS011;1528;52.550;13.408;2022-11-13T13:32:26;22.53;;;21.03;;
3036;SDS011;1528;52.550;13.408;2022-11-13T13:35:20;24.60;;;22.90;;
3036;SDS011;1528;52.550;13.408;2022-11-13T13:38:14;23.67;;;22.03;;
3036;SDS011;1528;52.550;13.408;2022-11-13T13:41:09;25.03;;;23.23;;
3036;SDS011;1528;52.550;13.408;2022-11-13T13:44:05;24.50;;;22.70;;
3036;SDS011;1528;52.550;13.408;2022-11-13T13:47:02;22.23;;;20.73;;
3036;SDS011;1528;52.550;13.408;2022-11-13T13:49:53;21.90;;;20.10;;
3036;SDS011;1528;52.550;13.408;2022-11-13T13:52:40;19.60;;;18.33;;
3036;SDS011;1528;52.550;13.408;2022-11-13T13:55:30;22.23;;;20.47;;
3036;SDS011;1528;52.550;13.408;2022-11-13T13:58:18;21.67;;;19.97;;
3036;SDS011;1528;52.550;13.408;2022-11-13T14:01:11;20.17;;;18.73;;
3036;SDS011;1528;52.550;13.408;2022-11-13T14:04:04;23.50;;;21.60;;
3036;SDS011;1528;52.550;13.408;2022-11-13T14:06:57;21.80;;;20.13;;
3036;SDS011;1528;52.550;13.408;2022-11-13T14:09:43;21.83;;;20.23;;
3036;SDS011;1528;52.550;13.408;2022-11-13T14:12:30;22.63;;;20.83;;
3036;SDS011;1528;52.550;13.408;2022-11-13T14:15:20;22.00;;;20.40;;
3036;SDS011;1528;52.550;13.408;2022-11-13T14:18:08;23.73;;;21.90;;
3036;SDS011;1528;52.550;13.408;2022-11-13T14:20:57;21.77;;;20.47;;
3036;SDS011;1528;52.550;13.408;2022-11-13T14:23:45;22.97;;;21.37;;
3036;SDS011;1528;52.550;13.408;2022-11-13T14:26:33;23.43;;;21.73;;
3036;SDS011;1528;52.550;13.408;2022-11-13T14:29:21;22.03;;;20.43;;
3036;SDS011;1528;52.550;13.408;2022-11-13T14:32:18;21.37;;;19.97;;
3036;SDS011;1528;52.550;13.408;2022-11-13T14:35:06;24.02;;;22.63;;
3036;SDS011;1528;52.550;13.408;2022-11-13T14:38:01;22.97;;;21.37;;
3036;SDS011;1528;52.550;13.408;2022-11-13T14:40:47;21.47;;;19.90;;
3036;SDS011;1528;52.550;13.408;2022-11-13T14:43:33;21.50;;;19.80;;
3036;SDS011;1528;52.550;13.408;2022-11-13T14:46:27;21.83;;;20.33;;
3036;SDS011;1528;52.550;13.408;2022-11-13T14:49:24;23.23;;;21.30;;
3036;SDS011;1528;52.550;13.408;2022-11-13T14:52:18;20.87;;;19.47;;
3036;SDS011;1528;52.550;13.408;2022-11-13T14:55:05;22.77;;;21.07;;
3036;SDS011;1528;52.550;13.408;2022-11-13T14:57:51;20.67;;;19.37;;
3036;SDS011;1528;52.550;13.408;2022-11-13T15:00:37;22.03;;;20.13;;
3036;SDS011;1528;52.550;13.408;2022-11-13T15:03:25;22.17;;;20.50;;
3036;SDS011;1528;52.550;13.408;2022-11-13T15:06:11;21.67;;;20.17;;
3036;SDS011;1528;52.550;13.408;2022-11-13T15:08:58;22.67;;;21.13;;
3036;SDS011;1528;52.550;13.408;2022-11-13T15:11:44;22.20;;;20.67;;
3036;SDS011;1528;52.550;13.408;2022-11-13T15:14:30;22.17;;;20.53;;
3036;SDS011;1528;52.550;13.408;2022-11-13T15:17:17;24.13;;;22.43;;
3036;SDS011;1528;52.550;13.408;2022-11-13T15:20:08;23.83;;;22.10;;
3036;SDS011;1528;52.550;13.408;2022-11-13T15:22:58;22.60;;;20.93;;
3036;SDS011;1528;52.550;13.408;2022-11-13T15:25:44;21.97;;;20.27;;
3036;SDS011;1528;52.550;13.408;2022-11-13T15:28:30;22.87;;;21.07;;
3036;SDS011;1528;52.550;13.408;2022-11-13T15:31:17;22.33;;;20.53;;
3036;SDS011;1528;52.550;13.408;2022-11-13T15:34:03;23.27;;;21.30;;
3036;SDS011;1528;52.550;13.408;2022-11-13T15:36:50;22.23;;;20.53;;
3036;SDS011;1528;52.550;13.408;2022-11-13T15:39:36;20.67;;;19.17;;
3036;SDS011;1528;52.550;13.408;2022-11-13T15:42:25;22.10;;;20.47;;
3036;SDS011;1528;52.550;13.408;2022-11-13T15:45:13;22.80;;;21.20;;
3036;SDS011;1528;52.550;13.408;2022-11-13T15:47:59;22.93;;;21.03;;
3036;SDS011;1528;52.550;13.408;2022-11-13T15:50:45;22.93;;;21.23;;
3036;SDS011;1528;52.550;13.408;2022-11-13T15:53:32;21.37;;;19.93;;
3036;SDS011;1528;52.550;13.408;2022-11-13T15:56:17;24.13;;;22.33;;
3036;SDS011;1528;52.550;13.408;2022-11-13T15:59:04;22.60;;;20.80;;
3036;SDS011;1528;52.550;13.408;2022-11-13T16:01:49;23.17;;;21.57;;
3036;SDS011;1528;52.550;13.408;2022-11-13T16:04:36;22.00;;;20.40;;
3036;SDS011;1528;52.550;13.408;2022-11-13T16:07:24;25.40;;;23.40;;
3036;SDS011;1528;52.550;13.408;2022-11-13T16:10:13;24.47;;;22.57;;
3036;SDS011;1528;52.550;13.408;2022-11-13T16:12:59;24.07;;;22.40;;
3036;SDS011;1528;52.550;13.408;2022-11-13T16:15:45;24.37;;;21.97;;
3036;SDS011;1528;52.550;13.408;2022-11-13T16:18:31;27.07;;;25.07;;
3036;SDS011;1528;52.550;13.408;2022-11-13T16:21:18;27.83;;;25.43;;
3036;SDS011;1528;52.550;13.408;2022-11-13T16:24:04;26.97;;;24.80;;
3036;SDS011;1528;52.550;13.408;2022-11-13T16:26:53;26.83;;;24.73;;
3036;SDS011;1528;52.550;13.408;2022-11-13T16:29:40;27.50;;;25.10;;
3036;SDS011;1528;52.550;13.408;2022-11-13T16:32:26;27.20;;;25.00;;
3036;SDS011;1528;52.550;13.408;2022-11-13T16:35:12;27.73;;;25.53;;
3036;SDS011;1528;52.550;13.408;2022-11-13T16:37:58;30.80;;;28.30;;
3036;SDS011;1528;52.550;13.408;2022-11-13T16:44:26;29.57;;;27.07;;